Time;durP1;ratioP1;P1;durP2;ratioP2;P2;SDS_P1;SDS_P2;PMS_P1;PMS_P2;Temp;Humidity;BMP_temperature;BMP_pressure;BME280_temperature;BME280_humidity;BME280_pressure;Samples;Min_cycle;Max_cycle;Signal;HPM_P1;HPM_P2
2022/04/27 00:01:15;;;;;;;27.17;11.10;;;;;;;-145.18;100.00;60484.78;5025268;28;20079;-69
2022/04/27 00:03:40;;;;;;;19.47;10.50;;;;;;;-145.18;100.00;60484.78;5028748;28;20025;-69
2022/04/27 00:06:05;;;;;;;23.70;11.57;;;;;;;-145.18;100.00;60484.78;5025858;28;20040;-70
2022/04/27 00:08:31;;;;;;;22.43;10.90;;;;;;;-145.18;100.00;60484.78;5023506;28;20025;-69
2022/04/27 00:10:56;;;;;;;25.37;11.10;;;;;;;-145.18;100.00;60484.78;5008928;28;20108;-70
2022/04/27 00:13:22;;;;;;;20.93;11.10;;;;;;;-145.18;100.00;60484.78;5022482;28;20116;-70
2022/04/27 00:15:47;;;;;;;25.97;10.63;;;;;;;-145.18;100.00;60484.78;5020289;28;20021;-69
2022/04/27 00:18:12;;;;;;;19.50;10.60;;;;;;;-145.18;100.00;60484.78;5025047;28;20045;-69
2022/04/27 00:20:38;;;;;;;20.07;10.63;;;;;;;-145.18;100.00;60484.78;5025827;28;20014;-70
2022/04/27 00:23:03;;;;;;;19.50;10.97;;;;;;;-145.18;100.00;60484.78;5024104;28;20112;-70
2022/04/27 00:25:29;;;;;;;19.93;10.20;;;;;;;-145.18;100.00;60484.78;5007332;28;20034;-70
2022/04/27 00:27:54;;;;;;;18.60;10.40;;;;;;;-145.18;100.00;60484.78;5024327;28;20025;-70
2022/04/27 00:30:19;;;;;;;22.03;11.10;;;;;;;-145.18;100.00;60484.78;5025319;28;20124;-69
2022/04/27 00:32:45;;;;;;;26.73;11.90;;;;;;;-145.18;100.00;60484.78;5027620;28;20039;-70
2022/04/27 00:35:10;;;;;;;19.87;11.23;;;;;;;-145.18;100.00;60484.78;5022656;28;20031;-70
2022/04/27 00:37:36;;;;;;;22.33;11.57;;;;;;;-145.18;100.00;60484.78;5025847;28;20048;-70
2022/04/27 00:40:02;;;;;;;23.23;12.07;;;;;;;-145.18;100.00;60484.78;5021382;28;20128;-70
2022/04/27 00:42:27;;;;;;;26.07;12.63;;;;;;;-145.18;100.00;60484.78;5012114;28;20025;-70
2022/04/27 00:44:53;;;;;;;24.73;12.77;;;;;;;-145.18;100.00;60484.78;5024471;28;20039;-70
2022/04/27 00:47:19;;;;;;;25.97;12.80;;;;;;;-145.18;100.00;60484.78;5024549;28;20434;-70
2022/04/27 00:49:49;;;;;;;26.53;14.30;;;;;;;-145.18;100.00;60484.78;5021285;28;20116;-70
2022/04/27 00:52:16;;;;;;;27.57;13.47;;;;;;;-145.18;100.00;60484.78;5022392;28;20033;-70
2022/04/27 00:54:42;;;;;;;26.30;13.60;;;;;;;-145.18;100.00;60484.78;5022977;28;20040;-70
2022/04/27 00:57:09;;;;;;;27.13;14.67;;;;;;;-145.18;100.00;60484.78;5024950;28;20463;-69
2022/04/27 00:59:35;;;;;;;25.60;14.07;;;;;;;-145.18;100.00;60484.78;5017568;28;20025;-70
2022/04/27 01:02:01;;;;;;;26.97;14.80;;;;;;;-145.18;100.00;60484.78;5024256;28;20030;-70
2022/04/27 01:04:27;;;;;;;25.27;13.30;;;;;;;-145.18;100.00;60484.78;5023239;28;20032;-70
2022/04/27 01:06:53;;;;;;;30.87;14.37;;;;;;;-145.18;100.00;60484.78;5027104;28;20495;-70
2022/04/27 01:09:18;;;;;;;30.70;15.80;;;;;;;-145.18;100.00;60484.78;5009117;28;20072;-70
2022/04/27 01:11:45;;;;;;;37.07;16.83;;;;;;;-145.18;100.00;60484.78;5009760;28;20041;-70
2022/04/27 01:14:10;;;;;;;41.67;18.17;;;;;;;-145.18;100.00;60484.78;5016608;28;20037;-70
2022/04/27 01:16:36;;;;;;;36.53;17.80;;;;;;;-145.18;100.00;60484.78;5024312;28;20022;-71
2022/04/27 01:19:02;;;;;;;37.67;17.80;;;;;;;-145.18;100.00;60484.78;5008330;28;20693;-71
2022/04/27 01:21:28;;;;;;;35.67;18.10;;;;;;;-145.18;100.00;60484.78;5008541;28;20134;-70
2022/04/27 01:23:53;;;;;;;45.30;16.83;;;;;;;-145.18;100.00;60484.78;5006762;28;20769;-70
2022/04/27 01:26:19;;;;;;;41.57;17.60;;;;;;;-145.18;100.00;60484.78;5009714;28;20040;-71
2022/04/27 01:28:45;;;;;;;46.83;17.90;;;;;;;-145.18;100.00;60484.78;5009920;28;20041;-70
2022/04/27 01:31:11;;;;;;;36.20;15.83;;;;;;;-145.18;100.00;60484.78;5008089;28;20029;-70
2022/04/27 01:33:38;;;;;;;37.80;16.53;;;;;;;-145.18;100.00;60484.78;5012777;28;20033;-69
2022/04/27 01:36:10;;;;;;;32.33;15.67;;;;;;;-145.18;100.00;60484.78;5011121;28;20021;-69
2022/04/27 01:38:38;;;;;;;31.93;16.37;;;;;;;-145.18;100.00;60484.78;5008862;28;20033;-70
2022/04/27 01:41:04;;;;;;;37.20;16.93;;;;;;;-145.18;100.00;60484.78;5013087;28;20036;-70
2022/04/27 01:43:29;;;;;;;35.83;17.73;;;;;;;-145.18;100.00;60484.78;5013933;28;20025;-69
2022/04/27 01:45:56;;;;;;;34.67;17.13;;;;;;;-145.18;100.00;60484.78;5024805;28;20568;-69
2022/04/27 01:48:22;;;;;;;36.30;17.53;;;;;;;-145.18;100.00;60484.78;5023849;28;20044;-69
2022/04/27 01:50:47;;;;;;;30.23;15.53;;;;;;;-145.18;100.00;60484.78;5024315;28;20021;-69
2022/04/27 01:55:57;;;;;;;34.33;18.00;;;;;;;-145.18;100.00;60484.78;5022423;28;20087;-69
2022/04/27 01:58:24;;;;;;;37.47;17.93;;;;;;;-145.18;100.00;60484.78;5025808;28;20021;-69
2022/04/27 02:00:50;;;;;;;38.73;17.60;;;;;;;-145.18;100.00;60484.78;5019256;28;20061;-69
2022/04/27 02:03:17;;;;;;;39.07;19.03;;;;;;;-145.18;100.00;60484.78;5012976;28;20029;-69
2022/04/27 02:05:44;;;;;;;43.93;19.00;;;;;;;-145.18;100.00;60484.78;5021046;28;20116;-69
2022/04/27 02:08:09;;;;;;;40.87;19.60;;;;;;;-145.18;100.00;60484.78;5015871;28;20458;-70
2022/04/27 02:10:35;;;;;;;47.13;19.20;;;;;;;-145.18;100.00;60484.78;5021281;28;20037;-69
2022/04/27 02:13:04;;;;;;;44.90;20.60;;;;;;;-145.18;100.00;60484.78;5028303;28;20064;-69
2022/04/27 02:15:30;;;;;;;49.67;20.07;;;;;;;-145.18;100.00;60484.78;5026498;28;20497;-70
2022/04/27 02:17:55;;;;;;;48.20;20.33;;;;;;;-145.18;100.00;60484.78;5022192;28;20017;-70
2022/04/27 02:20:23;;;;;;;43.70;18.50;;;;;;;-145.18;100.00;60484.78;5027125;28;20517;-69
2022/04/27 02:22:48;;;;;;;42.60;18.10;;;;;;;-145.18;100.00;60484.78;5029224;28;20720;-69
2022/04/27 02:25:13;;;;;;;48.77;19.57;;;;;;;-145.18;100.00;60484.78;5029492;28;20037;-70
2022/04/27 02:27:39;;;;;;;44.87;19.67;;;;;;;-145.18;100.00;60484.78;5027056;28;20456;-69
2022/04/27 02:30:05;;;;;;;48.40;20.07;;;;;;;-145.18;100.00;60484.78;5026506;28;20039;-70
2022/04/27 02:32:30;;;;;;;53.90;21.30;;;;;;;-145.18;100.00;60484.78;5028973;28;20030;-69
2022/04/27 02:34:55;;;;;;;55.60;20.70;;;;;;;-145.18;100.00;60484.78;5026246;28;20020;-69
2022/04/27 02:37:21;;;;;;;56.60;23.07;;;;;;;-145.18;100.00;60484.78;5029335;28;20678;-70
2022/04/27 02:39:46;;;;;;;47.93;20.83;;;;;;;-145.18;100.00;60484.78;5031067;28;20409;-69
2022/04/27 02:42:12;;;;;;;54.23;22.07;;;;;;;-145.18;100.00;60484.78;5019922;28;20386;-69
2022/04/27 02:44:37;;;;;;;48.33;20.63;;;;;;;-145.18;100.00;60484.78;5020887;28;20025;-70
2022/04/27 02:47:04;;;;;;;59.57;23.87;;;;;;;-145.18;100.00;60484.78;5005290;28;20025;-70
2022/04/27 02:52:13;;;;;;;63.33;24.63;;;;;;;-145.18;100.00;60484.78;5028213;28;20044;-70
2022/04/27 02:54:38;;;;;;;61.67;25.17;;;;;;;-145.18;100.00;60484.78;5019465;28;20021;-70
2022/04/27 02:57:04;;;;;;;66.10;24.60;;;;;;;-145.18;100.00;60484.78;5025857;28;20084;-70
2022/04/27 02:59:30;;;;;;;63.27;24.20;;;;;;;-145.18;100.00;60484.78;5027712;28;20053;-70
2022/04/27 03:01:55;;;;;;;67.80;26.20;;;;;;;-145.18;100.00;60484.78;5023545;28;20025;-70
2022/04/27 03:04:20;;;;;;;71.93;25.97;;;;;;;-145.18;100.00;60484.78;5027403;28;20112;-70
2022/04/27 03:06:46;;;;;;;70.43;26.43;;;;;;;-145.18;100.00;60484.78;5022501;28;20487;-70
2022/04/27 03:09:11;;;;;;;62.73;25.93;;;;;;;-145.18;100.00;60484.78;5024059;28;20066;-70
2022/04/27 03:11:36;;;;;;;57.27;24.60;;;;;;;-145.18;100.00;60484.78;5025652;28;20018;-70
2022/04/27 03:14:02;;;;;;;62.47;24.60;;;;;;;-145.18;100.00;60484.78;5029993;28;20913;-69
2022/04/27 03:16:27;;;;;;;67.43;25.63;;;;;;;-145.18;100.00;60484.78;5031313;28;20031;-70
2022/04/27 03:18:52;;;;;;;56.40;23.60;;;;;;;-145.18;100.00;60484.78;5024988;28;20398;-70
2022/04/27 03:21:18;;;;;;;63.97;24.50;;;;;;;-145.18;100.00;60484.78;5028422;28;20041;-70
2022/04/27 03:23:44;;;;;;;54.50;23.87;;;;;;;-145.18;100.00;60484.78;5022418;28;20382;-70
2022/04/27 03:26:09;;;;;;;58.40;24.23;;;;;;;-145.18;100.00;60484.78;5024383;28;20029;-70
2022/04/27 03:28:34;;;;;;;63.20;25.83;;;;;;;-145.18;100.00;60484.78;5027143;28;20052;-70
2022/04/27 03:31:00;;;;;;;74.97;26.37;;;;;;;-145.18;100.00;60484.78;5020808;28;20018;-70
2022/04/27 03:33:25;;;;;;;60.90;25.37;;;;;;;-145.18;100.00;60484.78;5027189;28;20022;-70
2022/04/27 03:35:51;;;;;;;61.93;25.40;;;;;;;-145.18;100.00;60484.78;5027245;28;20033;-70
2022/04/27 03:38:18;;;;;;;54.70;22.93;;;;;;;-145.18;100.00;60484.78;5018502;28;20032;-70
2022/04/27 03:40:44;;;;;;;49.90;21.50;;;;;;;-145.18;100.00;60484.78;5015846;28;20462;-70
2022/04/27 03:43:09;;;;;;;46.27;21.10;;;;;;;-145.18;100.00;60484.78;5017711;28;20026;-70
2022/04/27 03:45:35;;;;;;;55.40;23.87;;;;;;;-145.18;100.00;60484.78;5023853;28;20025;-70
2022/04/27 03:48:01;;;;;;;56.57;22.47;;;;;;;-145.18;100.00;60484.78;5027396;28;20113;-70
2022/04/27 03:50:26;;;;;;;52.90;21.97;;;;;;;-145.18;100.00;60484.78;5023650;28;20083;-70
2022/04/27 03:52:51;;;;;;;50.03;21.97;;;;;;;-145.18;100.00;60484.78;5023862;28;20064;-70
2022/04/27 03:55:17;;;;;;;46.50;19.47;;;;;;;-145.18;100.00;60484.78;5003775;28;20032;-70
2022/04/27 03:57:42;;;;;;;35.50;17.73;;;;;;;-145.18;100.00;60484.78;5018661;28;20029;-70
2022/04/27 04:00:09;;;;;;;46.07;20.80;;;;;;;-145.18;100.00;60484.78;5025574;28;20064;-70
2022/04/27 04:02:36;;;;;;;44.37;20.17;;;;;;;-145.18;100.00;60484.78;5026557;28;20022;-70
2022/04/27 04:05:03;;;;;;;60.63;20.17;;;;;;;-145.18;100.00;60484.78;5024018;28;20049;-70
2022/04/27 04:07:28;;;;;;;59.20;22.77;;;;;;;-145.18;100.00;60484.78;5027913;28;20533;-69
2022/04/27 04:09:53;;;;;;;59.00;23.87;;;;;;;-145.18;100.00;60484.78;5024834;28;20108;-69
2022/04/27 04:12:19;;;;;;;63.80;24.67;;;;;;;-145.18;100.00;60484.78;5018233;28;20036;-70
2022/04/27 04:14:44;;;;;;;64.20;24.80;;;;;;;-145.18;100.00;60484.78;5022312;28;20053;-69
2022/04/27 04:17:09;;;;;;;78.17;26.87;;;;;;;-145.18;100.00;60484.78;5020061;28;20676;-70
2022/04/27 04:19:35;;;;;;;73.83;27.93;;;;;;;-145.18;100.00;60484.78;5017644;28;20396;-70
2022/04/27 04:22:01;;;;;;;77.63;28.07;;;;;;;-145.18;100.00;60484.78;5027431;28;20309;-70
2022/04/27 04:24:26;;;;;;;84.07;30.53;;;;;;;-145.18;100.00;60484.78;5024706;28;20039;-70
2022/04/27 04:29:37;;;;;;;74.90;27.07;;;;;;;-145.18;100.00;60484.78;5020451;28;20123;-70
2022/04/27 04:32:03;;;;;;;71.43;27.70;;;;;;;-145.18;100.00;60484.78;5026155;28;20661;-69
2022/04/27 04:34:28;;;;;;;68.07;26.03;;;;;;;-145.18;100.00;60484.78;5020168;28;20028;-69
2022/04/27 04:36:53;;;;;;;62.07;26.23;;;;;;;-145.18;100.00;60484.78;5016063;28;20617;-70
2022/04/27 04:39:19;;;;;;;64.20;26.83;;;;;;;-145.18;100.00;60484.78;5014770;28;20033;-70
2022/04/27 04:41:45;;;;;;;61.57;25.93;;;;;;;-145.18;100.00;60484.78;5023942;28;20025;-70
2022/04/27 04:44:10;;;;;;;67.40;27.07;;;;;;;-145.18;100.00;60484.78;5025432;28;20060;-69
2022/04/27 04:46:36;;;;;;;67.17;29.50;;;;;;;-145.18;100.00;60484.78;5024965;28;22157;-70
2022/04/27 04:49:01;;;;;;;70.13;30.90;;;;;;;-145.18;100.00;60484.78;5018201;28;20029;-70
2022/04/27 04:51:27;;;;;;;59.70;28.63;;;;;;;-145.18;100.00;60484.78;5027359;28;20024;-70
2022/04/27 04:53:52;;;;;;;53.63;25.77;;;;;;;-145.18;100.00;60484.78;5018501;28;20025;-70
2022/04/27 04:56:17;;;;;;;47.37;22.90;;;;;;;-145.18;100.00;60484.78;5025342;28;20508;-70
2022/04/27 04:58:43;;;;;;;44.07;20.57;;;;;;;-145.18;100.00;60484.78;5024635;28;20017;-69
2022/04/27 05:01:08;;;;;;;35.27;18.23;;;;;;;-145.18;100.00;60484.78;5024457;28;20187;-69
2022/04/27 05:03:36;;;;;;;32.23;16.60;;;;;;;-145.18;100.00;60484.78;5023604;28;20079;-69
2022/04/27 05:06:03;;;;;;;27.00;15.00;;;;;;;-145.18;100.00;60484.78;5026038;28;20029;-68
2022/04/27 05:08:28;;;;;;;29.03;13.77;;;;;;;-145.18;100.00;60484.78;5026035;28;20577;-69
2022/04/27 05:10:54;;;;;;;25.27;12.53;;;;;;;-145.18;100.00;60484.78;5021220;28;20112;-68
2022/04/27 05:13:19;;;;;;;25.47;12.63;;;;;;;-145.18;100.00;60484.78;5028490;28;20032;-69
2022/04/27 05:15:45;;;;;;;23.73;12.40;;;;;;;-145.18;100.00;60484.78;5025347;28;20028;-69
2022/04/27 05:18:10;;;;;;;28.43;12.80;;;;;;;-145.18;100.00;60484.78;5026219;28;22064;-69
2022/04/27 05:20:37;;;;;;;27.20;12.50;;;;;;;-145.18;100.00;60484.78;5023907;28;20032;-69
2022/04/27 05:23:02;;;;;;;24.77;12.57;;;;;;;-145.18;100.00;60484.78;5025020;28;20347;-69
2022/04/27 05:25:28;;;;;;;25.77;12.27;;;;;;;-145.18;100.00;60484.78;5020141;28;20041;-68
2022/04/27 05:27:53;;;;;;;20.90;11.47;;;;;;;-145.18;100.00;60484.78;5025124;28;20410;-69
2022/04/27 05:33:02;;;;;;;26.30;10.37;;;;;;;-145.18;100.00;60484.78;5020854;28;20103;-69
2022/04/27 05:35:28;;;;;;;21.53;11.00;;;;;;;-145.18;100.00;60484.78;5020158;28;20033;-68
2022/04/27 05:37:53;;;;;;;21.90;10.90;;;;;;;-145.18;100.00;60484.78;5025335;28;20026;-68
2022/04/27 05:40:19;;;;;;;21.40;10.83;;;;;;;-145.18;100.00;60484.78;5021287;28;20397;-69
2022/04/27 05:42:45;;;;;;;23.33;11.67;;;;;;;-145.18;100.00;60484.78;5023025;28;20096;-68
2022/04/27 05:45:10;;;;;;;20.93;11.37;;;;;;;-145.18;100.00;60484.78;5025456;28;20033;-68
2022/04/27 05:47:36;;;;;;;25.63;10.37;;;;;;;-145.18;100.00;60484.78;5030141;28;20029;-68
2022/04/27 05:50:04;;;;;;;19.43;10.63;;;;;;;-145.18;100.00;60484.78;5030189;28;20036;-69
2022/04/27 05:52:29;;;;;;;20.57;9.87;;;;;;;-145.18;100.00;60484.78;5022583;28;20029;-68
2022/04/27 05:54:55;;;;;;;19.57;10.80;;;;;;;-145.18;100.00;60484.78;5035370;28;20021;-68
2022/04/27 05:57:20;;;;;;;17.87;9.97;;;;;;;-145.18;100.00;60484.78;5018238;28;20036;-68
2022/04/27 05:59:47;;;;;;;17.57;9.70;;;;;;;-145.18;100.00;60484.78;5030935;28;20028;-68
2022/04/27 06:02:12;;;;;;;17.90;9.13;;;;;;;-145.18;100.00;60484.78;5035491;28;20029;-69
2022/04/27 06:04:37;;;;;;;17.60;8.90;;;;;;;-145.18;100.00;60484.78;5019513;28;20032;-69
2022/04/27 06:07:04;;;;;;;17.42;8.65;;;;;;;-145.18;100.00;60484.78;5035629;28;20025;-69
2022/04/27 06:09:29;;;;;;;16.17;8.55;;;;;;;-145.18;100.00;60484.78;5034179;28;20026;-68
2022/04/27 06:11:55;;;;;;;15.25;8.32;;;;;;;-145.18;100.00;60484.78;5035633;28;20029;-69
2022/04/27 06:14:20;;;;;;;16.90;8.68;;;;;;;-145.18;100.00;60484.78;5015257;28;20124;-69
2022/04/27 06:16:45;;;;;;;14.27;7.55;;;;;;;-145.18;100.00;60484.78;5035234;28;20416;-69
2022/04/27 06:19:11;;;;;;;15.18;7.28;;;;;;;-145.18;100.00;60484.78;5032762;28;20059;-69
2022/04/27 06:21:37;;;;;;;10.70;6.25;;;;;;;-145.18;100.00;60484.78;5016700;28;20021;-69
2022/04/27 06:24:04;;;;;;;13.73;6.20;;;;;;;-145.18;100.00;60484.78;5034908;28;20076;-69
2022/04/27 06:26:33;;;;;;;14.32;5.53;;;;;;;-145.18;100.00;60484.78;5028992;28;20021;-69
2022/04/27 06:29:02;;;;;;;17.02;5.72;;;;;;;-145.18;100.00;60484.78;5028213;28;20128;-69
2022/04/27 06:31:27;;;;;;;12.82;5.68;;;;;;;-145.18;100.00;60484.78;5034682;28;20025;-69
2022/04/27 06:33:53;;;;;;;16.75;6.25;;;;;;;-145.18;100.00;60484.78;5029591;28;20022;-69
2022/04/27 06:36:18;;;;;;;11.48;5.28;;;;;;;-145.18;100.00;60484.78;5031822;28;20079;-69
2022/04/27 06:38:43;;;;;;;10.85;5.35;;;;;;;-145.18;100.00;60484.78;5035491;28;20045;-69
2022/04/27 06:41:09;;;;;;;12.73;4.70;;;;;;;-145.18;100.00;60484.78;5008052;28;20032;-69
2022/04/27 06:43:34;;;;;;;12.40;4.85;;;;;;;-145.18;100.00;60484.78;5019535;28;20362;-70
2022/04/27 06:46:00;;;;;;;9.10;4.30;;;;;;;-145.18;100.00;60484.78;5031120;28;20038;-69
2022/04/27 06:48:26;;;;;;;9.77;4.22;;;;;;;-145.18;100.00;60484.78;5033528;28;20014;-69
2022/04/27 06:50:52;;;;;;;11.00;4.30;;;;;;;-145.18;100.00;60484.78;5031924;28;20170;-69
2022/04/27 06:53:17;;;;;;;11.23;4.43;;;;;;;-145.18;100.00;60484.78;5031558;28;20105;-70
2022/04/27 06:55:42;;;;;;;9.57;3.75;;;;;;;-145.18;100.00;60484.78;5009478;28;20397;-69
2022/04/27 06:58:08;;;;;;;9.35;3.97;;;;;;;-145.18;100.00;60484.78;5032085;28;20014;-69
2022/04/27 07:00:33;;;;;;;13.93;4.03;;;;;;;-145.18;100.00;60484.78;5029471;28;20036;-69
2022/04/27 07:02:59;;;;;;;10.77;3.78;;;;;;;-145.18;100.00;60484.78;5025851;28;20092;-69
2022/04/27 07:05:26;;;;;;;10.25;4.20;;;;;;;-145.18;100.00;60484.78;5026225;28;20124;-69
2022/04/27 07:07:52;;;;;;;8.70;3.72;;;;;;;-145.18;100.00;60484.78;5031743;28;20100;-69
2022/04/27 07:10:19;;;;;;;8.30;3.45;;;;;;;-145.18;100.00;60484.78;5020997;28;20164;-69
2022/04/27 07:12:46;;;;;;;7.20;3.40;;;;;;;-145.18;100.00;60484.78;5031159;28;20045;-68
2022/04/27 07:15:12;;;;;;;10.70;3.85;;;;;;;-145.18;100.00;60484.78;5027436;28;20029;-69
2022/04/27 07:17:38;;;;;;;7.05;3.45;;;;;;;-145.18;100.00;60484.78;5028580;28;20536;-69
2022/04/27 07:20:04;;;;;;;6.60;3.45;;;;;;;-145.18;100.00;60484.78;5028387;28;20028;-69
2022/04/27 07:22:29;;;;;;;7.20;2.55;;;;;;;-145.18;100.00;60484.78;5031349;28;20104;-69
2022/04/27 07:24:54;;;;;;;6.45;2.55;;;;;;;-145.18;100.00;60484.78;5027912;28;20120;-70
2022/04/27 07:27:20;;;;;;;7.15;2.80;;;;;;;-145.18;100.00;60484.78;5028258;28;20546;-70
2022/04/27 07:29:45;;;;;;;7.45;2.92;;;;;;;-145.18;100.00;60484.78;5019794;28;20440;-70
2022/04/27 07:32:10;;;;;;;10.65;3.45;;;;;;;-145.18;100.00;60484.78;5021349;28;20374;-70
2022/04/27 07:34:36;;;;;;;9.27;3.78;;;;;;;-145.18;100.00;60484.78;5023600;28;20072;-70
2022/04/27 07:37:03;;;;;;;7.88;3.80;;;;;;;-145.18;100.00;60484.78;5028072;28;20116;-70
2022/04/27 07:39:29;;;;;;;10.23;4.13;;;;;;;-145.18;100.00;60484.78;5021574;28;20021;-70
2022/04/27 07:41:55;;;;;;;11.23;4.15;;;;;;;-145.18;100.00;60484.78;5012864;28;20533;-70
2022/04/27 07:44:20;;;;;;;10.20;4.53;;;;;;;-145.18;100.00;60484.78;5014532;28;20436;-71
2022/04/27 07:46:48;;;;;;;8.55;4.15;;;;;;;-145.18;100.00;60484.78;5030420;28;20358;-70
2022/04/27 07:49:22;;;;;;;7.30;4.00;;;;;;;-145.18;100.00;60484.78;5027964;28;20033;-70
2022/04/27 07:51:49;;;;;;;11.95;4.43;;;;;;;-145.18;100.00;60484.78;5027595;28;20087;-70
2022/04/27 07:54:15;;;;;;;9.05;4.07;;;;;;;-145.18;100.00;60484.78;5016285;28;20036;-69
2022/04/27 07:56:40;;;;;;;8.85;4.00;;;;;;;-145.18;100.00;60484.78;5029678;28;20037;-70
2022/04/27 07:59:06;;;;;;;9.40;3.67;;;;;;;-145.18;100.00;60484.78;5029974;28;20046;-70
2022/04/27 08:01:31;;;;;;;9.90;3.80;;;;;;;-145.18;100.00;60484.78;5019334;28;20042;-70
2022/04/27 08:03:57;;;;;;;13.20;3.75;;;;;;;-145.18;100.00;60484.78;5011665;28;20080;-69
2022/04/27 08:06:22;;;;;;;8.85;3.47;;;;;;;-145.18;100.00;60484.78;5030479;28;20424;-69
2022/04/27 08:08:48;;;;;;;10.38;3.42;;;;;;;-145.18;100.00;60484.78;5029700;28;20083;-70
2022/04/27 08:11:15;;;;;;;11.10;3.28;;;;;;;-145.18;100.00;60484.78;5027016;28;20432;-70
2022/04/27 08:13:44;;;;;;;7.90;3.30;;;;;;;-145.18;100.00;60484.78;5030671;28;20215;-70
2022/04/27 08:16:11;;;;;;;8.40;3.92;;;;;;;-145.18;100.00;60484.78;5028612;28;20095;-70
2022/04/27 08:18:40;;;;;;;8.20;3.38;;;;;;;-145.18;100.00;60484.78;5030233;28;20053;-69
2022/04/27 08:21:14;;;;;;;9.43;3.70;;;;;;;-145.18;100.00;60484.78;5028068;28;20096;-70
2022/04/27 08:23:41;;;;;;;9.88;4.00;;;;;;;-145.18;100.00;60484.78;5030300;28;20544;-70
2022/04/27 08:26:07;;;;;;;7.13;3.25;;;;;;;-145.18;100.00;60484.78;5025537;28;20021;-69
2022/04/27 08:28:34;;;;;;;8.75;3.63;;;;;;;-145.18;100.00;60484.78;5030181;28;20064;-70
2022/04/27 08:31:13;;;;;;;10.45;3.90;;;;;;;-145.18;100.00;60484.78;5029599;28;20116;-75
2022/04/27 08:33:39;;;;;;;8.60;4.07;;;;;;;-145.18;100.00;60484.78;5025845;28;20030;-71
2022/04/27 08:36:06;;;;;;;6.63;3.45;;;;;;;-145.18;100.00;60484.78;5028484;28;20037;-70
2022/04/27 08:38:33;;;;;;;10.00;3.83;;;;;;;-145.18;100.00;60484.78;5013513;28;20068;-70
2022/04/27 08:40:59;;;;;;;9.40;3.80;;;;;;;-145.18;100.00;60484.78;5024084;28;20507;-70
2022/04/27 08:43:24;;;;;;;7.80;3.55;;;;;;;-145.18;100.00;60484.78;5029658;28;20030;-70
2022/04/27 08:45:51;;;;;;;8.35;3.22;;;;;;;-145.18;100.00;60484.78;5028738;28;20036;-70
2022/04/27 08:48:18;;;;;;;6.40;3.13;;;;;;;-145.18;100.00;60484.78;5029322;28;20032;-71
2022/04/27 08:50:45;;;;;;;8.70;3.30;;;;;;;-145.18;100.00;60484.78;5027940;28;20365;-70
2022/04/27 08:53:10;;;;;;;5.25;2.80;;;;;;;-145.18;100.00;60484.78;5015647;28;20037;-70
2022/04/27 08:55:37;;;;;;;6.40;3.35;;;;;;;-145.18;100.00;60484.78;5022606;28;20033;-69
2022/04/27 08:58:10;;;;;;;5.70;2.80;;;;;;;-145.18;100.00;60484.78;5029581;28;20454;-70
2022/04/27 09:00:35;;;;;;;8.25;3.50;;;;;;;-145.18;100.00;60484.78;5028412;28;20056;-70
2022/04/27 09:03:23;;;;;;;13.55;3.60;;;;;;;-145.18;100.00;60484.78;5029620;28;20087;-70
2022/04/27 09:05:50;;;;;;;9.38;3.30;;;;;;;-145.18;100.00;60484.78;5027628;28;20037;-69
2022/04/27 09:08:16;;;;;;;6.50;2.92;;;;;;;-145.18;100.00;60484.78;5029624;28;20121;-68
2022/04/27 09:10:41;;;;;;;10.27;3.90;;;;;;;-145.18;100.00;60484.78;5026487;28;20132;-68
2022/04/27 09:13:07;;;;;;;7.75;3.35;;;;;;;-145.18;100.00;60484.78;5029184;28;20500;-68
2022/04/27 09:15:32;;;;;;;8.30;3.90;;;;;;;-145.18;100.00;60484.78;5023950;28;20688;-68
2022/04/27 09:20:50;;;;;;;8.95;4.00;;;;;;;-145.18;100.00;60484.78;5027827;28;20044;-69
2022/04/27 09:23:37;;;;;;;8.68;4.32;;;;;;;-145.18;100.00;60484.78;5029057;28;20108;-69
2022/04/27 09:26:19;;;;;;;11.60;5.03;;;;;;;-145.18;100.00;60484.78;5021160;28;20021;-69
2022/04/27 09:28:51;;;;;;;9.70;4.75;;;;;;;-145.18;100.00;60484.78;5016764;28;20141;-71
2022/04/27 09:31:30;;;;;;;7.38;4.03;;;;;;;-145.18;100.00;60484.78;5022820;28;20478;-70
2022/04/27 09:33:59;;;;;;;6.32;3.10;;;;;;;-145.18;100.00;60484.78;5016047;28;20026;-70
2022/04/27 09:36:25;;;;;;;5.40;2.80;;;;;;;-145.18;100.00;60484.78;5015645;28;20029;-70
2022/04/27 09:38:52;;;;;;;8.65;2.80;;;;;;;-145.18;100.00;60484.78;5002894;28;20104;-71
2022/04/27 09:41:46;;;;;;;6.85;3.13;;;;;;;-145.18;100.00;60484.78;5026662;28;20033;-70
2022/04/27 09:44:32;;;;;;;6.72;2.83;;;;;;;-145.18;100.00;60484.78;5026872;28;20478;-68
2022/04/27 09:46:59;;;;;;;6.18;2.90;;;;;;;-145.18;100.00;60484.78;5021752;28;20026;-68
2022/04/27 09:49:25;;;;;;;10.98;3.72;;;;;;;-145.18;100.00;60484.78;5012837;28;20115;-68
2022/04/27 09:51:52;;;;;;;8.75;3.80;;;;;;;-145.18;100.00;60484.78;5027425;28;20029;-68
2022/04/27 09:54:23;;;;;;;7.70;3.20;;;;;;;-145.18;100.00;60484.78;5026395;28;20061;-68
2022/04/27 09:56:56;;;;;;;8.57;3.70;;;;;;;-145.18;100.00;60484.78;5028958;28;20108;-66
2022/04/27 09:59:29;;;;;;;8.35;3.42;;;;;;;-145.18;100.00;60484.78;5028474;28;20041;-69
2022/04/27 10:02:00;;;;;;;9.27;3.42;;;;;;;-145.18;100.00;60484.78;5029015;28;20021;-68
2022/04/27 10:04:29;;;;;;;9.27;3.80;;;;;;;-145.18;100.00;60484.78;5027512;28;20032;-68
2022/04/27 10:07:07;;;;;;;6.78;3.67;;;;;;;-145.18;100.00;60484.78;5028652;28;20056;-69
2022/04/27 10:09:33;;;;;;;6.60;3.72;;;;;;;-145.18;100.00;60484.78;5022200;28;20034;-68
2022/04/27 10:12:03;;;;;;;7.25;3.67;;;;;;;-145.18;100.00;60484.78;5019504;28;20017;-68
2022/04/27 10:14:29;;;;;;;10.10;4.30;;;;;;;-145.18;100.00;60484.78;5015652;28;20435;-71
2022/04/27 10:16:56;;;;;;;7.85;4.00;;;;;;;-145.18;100.00;60484.78;5028844;28;20079;-69
2022/04/27 10:19:21;;;;;;;7.35;3.50;;;;;;;-145.18;100.00;60484.78;5027552;28;20056;-68
2022/04/27 10:21:58;;;;;;;6.57;3.00;;;;;;;-145.18;100.00;60484.78;5028430;28;20025;-68
2022/04/27 10:24:49;;;;;;;7.28;3.50;;;;;;;-145.18;100.00;60484.78;5026517;28;20112;-68
2022/04/27 10:27:18;;;;;;;6.40;3.30;;;;;;;-145.18;100.00;60484.78;5013217;28;20044;-69
2022/04/27 10:29:59;;;;;;;6.93;3.80;;;;;;;-145.18;100.00;60484.78;5028450;28;20062;-68
2022/04/27 10:32:47;;;;;;;7.63;3.47;;;;;;;-145.18;100.00;60484.78;5029029;28;20029;-68
2022/04/27 10:35:12;;;;;;;6.32;3.78;;;;;;;-145.18;100.00;60484.78;5023855;28;20029;-70
2022/04/27 10:37:54;;;;;;;7.82;3.65;;;;;;;-145.18;100.00;60484.78;5032783;28;20029;-69
2022/04/27 10:40:40;;;;;;;;;;;;;;;-145.18;100.00;60484.78;5030851;28;20037;-69
2022/04/27 10:43:10;;;;;;;8.65;3.85;;;;;;;-145.18;100.00;60484.78;5031012;28;20387;-69
2022/04/27 10:45:40;;;;;;;8.48;4.00;;;;;;;-145.18;100.00;60484.78;5028212;28;20489;-69
2022/04/27 10:48:07;;;;;;;10.75;4.30;;;;;;;-145.18;100.00;60484.78;5025224;28;20049;-69
2022/04/27 10:50:35;;;;;;;8.40;3.95;;;;;;;-145.18;100.00;60484.78;5024561;28;20134;-69
2022/04/27 10:53:18;;;;;;;8.02;4.05;;;;;;;-145.18;100.00;60484.78;5032299;28;20029;-69
2022/04/27 10:55:50;;;;;;;8.38;3.92;;;;;;;-145.18;100.00;60484.78;5030116;28;20029;-69
2022/04/27 10:58:22;;;;;;;6.82;3.75;;;;;;;-145.18;100.00;60484.78;5031624;28;20032;-70
2022/04/27 11:01:03;;;;;;;9.13;4.35;;;;;;;-145.18;100.00;60484.78;5025052;28;20037;-70
2022/04/27 11:03:38;;;;;;;8.15;4.20;;;;;;;-145.18;100.00;60484.78;5031780;28;20021;-70
2022/04/27 11:06:06;;;;;;;9.82;4.18;;;;;;;-145.18;100.00;60484.78;5019812;28;20033;-70
2022/04/27 11:09:10;;;;;;;8.43;3.58;;;;;;;-145.18;100.00;60484.78;5010170;28;20021;-70
2022/04/27 11:11:54;;;;;;;8.02;3.72;;;;;;;-145.18;100.00;60484.78;5021225;28;21434;-70
2022/04/27 11:14:22;;;;;;;9.98;3.38;;;;;;;-145.18;100.00;60484.78;5025647;28;20028;-69